createdAt,value
2022-08-26T00:01:54.597Z,5.60
2022-08-26T00:04:23.510Z,7.40
2022-08-26T00:06:52.777Z,5.68
2022-08-26T00:09:19.638Z,6.30
2022-08-26T00:11:46.540Z,5.82
2022-08-26T00:14:14.480Z,7.32
2022-08-26T00:16:48.172Z,6.95
2022-08-26T00:19:17.947Z,8.85
2022-08-26T00:21:45.994Z,4.93
2022-08-26T00:24:13.392Z,10.63
2022-08-26T00:26:41.388Z,7.40
2022-08-26T00:29:12.048Z,5.65
2022-08-26T00:31:45.069Z,8.70
2022-08-26T00:34:12.878Z,6.00
2022-08-26T00:36:41.006Z,6.00
2022-08-26T00:39:08.790Z,8.95
2022-08-26T00:41:38.709Z,7.07
2022-08-26T00:44:06.529Z,7.05
2022-08-26T00:46:46.505Z,5.80
2022-08-26T00:49:40.115Z,7.60
2022-08-26T00:52:13.146Z,11.60
2022-08-26T00:54:58.813Z,8.90
2022-08-26T00:57:26.197Z,6.95
2022-08-26T00:59:56.665Z,20.30
2022-08-26T01:02:24.392Z,5.05
2022-08-26T01:04:58.810Z,8.88
2022-08-26T01:07:30.237Z,8.43
2022-08-26T01:10:00.482Z,7.43
2022-08-26T01:12:31.793Z,7.82
2022-08-26T01:14:58.648Z,7.22
2022-08-26T01:17:25.693Z,6.88
2022-08-26T01:20:06.546Z,8.65
2022-08-26T01:22:53.541Z,7.60
2022-08-26T01:25:22.377Z,6.70
2022-08-26T01:27:50.328Z,8.05
2022-08-26T01:30:21.106Z,15.93
2022-08-26T01:32:50.121Z,10.05
2022-08-26T01:35:19.724Z,8.63
2022-08-26T01:37:52.222Z,7.05
2022-08-26T01:40:25.612Z,7.03
2022-08-26T01:42:54.049Z,8.55
2022-08-26T01:45:25.874Z,8.15
2022-08-26T01:47:57.042Z,5.72
2022-08-26T01:50:31.277Z,7.22
2022-08-26T01:53:02.157Z,5.95
2022-08-26T01:55:33.160Z,7.53
2022-08-26T01:58:05.372Z,7.32
2022-08-26T02:00:34.385Z,8.70
2022-08-26T02:03:18.960Z,10.70
2022-08-26T02:05:58.546Z,10.45
2022-08-26T02:08:36.453Z,7.40
2022-08-26T02:11:08.200Z,6.35
2022-08-26T02:13:43.302Z,12.90
2022-08-26T02:16:11.737Z,7.82
2022-08-26T02:18:43.606Z,6.13
2022-08-26T02:21:11.854Z,7.47
2022-08-26T02:23:39.422Z,6.90
2022-08-26T02:26:16.283Z,7.25
2022-08-26T02:28:58.555Z,7.93
2022-08-26T02:31:25.357Z,8.10
2022-08-26T02:33:52.141Z,9.85
2022-08-26T02:36:23.448Z,7.07
2022-08-26T02:38:55.395Z,6.15
2022-08-26T02:41:24.726Z,8.25
2022-08-26T02:43:53.725Z,10.02
2022-08-26T02:46:21.552Z,7.57
2022-08-26T02:48:56.531Z,7.53
2022-08-26T02:51:23.277Z,5.93
2022-08-26T02:53:50.400Z,7.03
2022-08-26T02:56:18.000Z,10.02
2022-08-26T02:58:45.224Z,8.20
2022-08-26T03:01:24.872Z,7.07
2022-08-26T03:03:52.422Z,8.32
2022-08-26T03:06:19.288Z,7.57
2022-08-26T03:08:46.470Z,6.40
2022-08-26T03:11:14.183Z,7.10
2022-08-26T03:13:42.155Z,5.57
2022-08-26T03:16:11.778Z,9.57
2022-08-26T03:18:44.029Z,10.02
2022-08-26T03:21:19.755Z,7.25
2022-08-26T03:23:46.791Z,9.80
2022-08-26T03:26:15.622Z,7.22
2022-08-26T03:29:01.347Z,12.10
2022-08-26T03:31:29.557Z,6.22
2022-08-26T03:33:59.767Z,8.85
2022-08-26T03:36:29.277Z,7.60
2022-08-26T03:38:58.933Z,8.88
2022-08-26T03:41:27.779Z,10.30
2022-08-26T03:43:59.631Z,8.77
2022-08-26T03:46:33.179Z,8.05
2022-08-26T03:49:05.867Z,8.40
2022-08-26T03:51:38.678Z,6.27
2022-08-26T03:54:08.312Z,7.68
2022-08-26T03:56:38.436Z,7.13
2022-08-26T03:59:09.536Z,8.00
2022-08-26T04:01:38.634Z,10.10
2022-08-26T04:04:06.516Z,9.23
2022-08-26T04:06:42.396Z,7.63
2022-08-26T04:09:15.401Z,10.18
2022-08-26T04:11:44.720Z,10.10
2022-08-26T04:14:17.722Z,10.63
2022-08-26T04:16:47.363Z,9.65
2022-08-26T04:19:14.848Z,8.38
2022-08-26T04:21:45.085Z,7.75
2022-08-26T04:24:15.634Z,7.30
2022-08-26T04:26:43.854Z,8.93
2022-08-26T04:29:20.869Z,7.45
2022-08-26T04:31:50.494Z,6.60
2022-08-26T04:34:23.846Z,9.45
2022-08-26T04:36:51.398Z,9.10
2022-08-26T04:39:20.553Z,9.80
2022-08-26T04:41:48.630Z,9.98
2022-08-26T04:44:16.445Z,16.17
2022-08-26T04:46:44.251Z,9.23
2022-08-26T04:49:12.165Z,8.63
2022-08-26T04:51:39.991Z,11.10
2022-08-26T04:54:07.384Z,8.40
2022-08-26T04:56:40.069Z,8.88
2022-08-26T04:59:16.683Z,8.80
2022-08-26T05:01:49.863Z,9.52
2022-08-26T05:04:20.734Z,7.00
2022-08-26T05:06:50.365Z,14.77
2022-08-26T05:09:20.868Z,11.20
2022-08-26T05:11:52.223Z,14.63
2022-08-26T05:14:25.714Z,9.52
2022-08-26T05:16:55.654Z,13.15
2022-08-26T05:19:23.663Z,11.88
2022-08-26T05:21:50.519Z,8.80
2022-08-26T05:24:18.060Z,14.85
2022-08-26T05:26:45.181Z,11.65
2022-08-26T05:29:12.550Z,13.95
2022-08-26T05:31:39.633Z,8.75
2022-08-26T05:34:07.440Z,8.70
2022-08-26T05:36:37.999Z,9.05
2022-08-26T05:39:06.950Z,7.80
2022-08-26T05:41:38.429Z,10.13
2022-08-26T05:44:09.572Z,9.50
2022-08-26T05:46:37.600Z,10.18
2022-08-26T05:49:12.605Z,14.60
2022-08-26T05:51:41.431Z,14.25
2022-08-26T05:54:08.713Z,13.85
2022-08-26T05:56:38.199Z,10.63
2022-08-26T05:59:05.807Z,10.55
2022-08-26T06:01:37.754Z,11.47
2022-08-26T06:04:04.593Z,8.90
2022-08-26T06:06:36.128Z,14.05
2022-08-26T06:09:05.429Z,8.35
2022-08-26T06:11:34.940Z,12.77
2022-08-26T06:14:05.960Z,11.15
2022-08-26T06:16:36.275Z,12.68
2022-08-26T06:19:10.739Z,9.88
2022-08-26T06:21:40.348Z,12.45
2022-08-26T06:24:28.260Z,11.85
2022-08-26T06:26:58.264Z,13.98
2022-08-26T06:29:28.873Z,12.80
2022-08-26T06:31:56.883Z,10.20
2022-08-26T06:34:29.620Z,15.13
2022-08-26T06:36:58.872Z,10.80
2022-08-26T06:39:25.766Z,10.55
2022-08-26T06:41:52.997Z,11.07
2022-08-26T06:44:20.157Z,15.30
2022-08-26T06:46:50.376Z,20.42
2022-08-26T06:49:18.217Z,10.68
2022-08-26T06:51:52.677Z,11.85
2022-08-26T06:54:19.548Z,14.10
2022-08-26T06:56:46.433Z,11.43
2022-08-26T06:59:15.285Z,11.75
2022-08-26T07:01:44.980Z,10.85
2022-08-26T07:04:14.596Z,10.68
2022-08-26T07:06:47.102Z,10.15
2022-08-26T07:09:16.846Z,9.45
2022-08-26T07:11:44.562Z,8.93
2022-08-26T07:14:11.772Z,12.95
2022-08-26T07:16:41.133Z,10.63
2022-08-26T07:19:10.937Z,12.48
2022-08-26T07:21:41.423Z,11.57
2022-08-26T07:24:11.066Z,10.88
2022-08-26T07:26:42.978Z,11.23
2022-08-26T07:29:12.299Z,15.30
2022-08-26T07:31:42.734Z,10.75
2022-08-26T07:34:11.001Z,10.65
2022-08-26T07:36:40.518Z,11.50
2022-08-26T07:39:07.736Z,9.30
2022-08-26T07:41:34.439Z,8.98
2022-08-26T07:44:04.316Z,9.88
2022-08-26T07:46:33.960Z,9.43
2022-08-26T07:49:00.719Z,13.57
2022-08-26T07:51:29.962Z,18.75
2022-08-26T07:53:56.634Z,13.30
2022-08-26T07:56:23.613Z,14.18
2022-08-26T07:58:55.033Z,15.23
2022-08-26T08:01:24.321Z,23.73
2022-08-26T08:03:55.286Z,14.13
2022-08-26T08:06:27.259Z,12.35
2022-08-26T08:08:55.412Z,13.13
2022-08-26T08:11:23.111Z,22.83
2022-08-26T08:13:56.006Z,12.02
2022-08-26T08:18:51.420Z,12.88
2022-08-26T08:21:23.886Z,11.15
2022-08-26T08:23:56.240Z,8.98
2022-08-26T08:26:24.778Z,21.15
2022-08-26T08:28:55.758Z,10.88
2022-08-26T08:31:56.107Z,12.35
2022-08-26T08:34:18.053Z,14.18
2022-08-26T08:36:46.407Z,9.45
2022-08-26T08:39:13.749Z,11.10
2022-08-26T08:42:09.039Z,7.95
2022-08-26T08:44:40.814Z,10.63
2022-08-26T08:47:24.105Z,14.70
2022-08-26T08:49:52.934Z,11.25
2022-08-26T08:52:32.165Z,12.40
2022-08-26T08:54:59.058Z,15.40
2022-08-26T08:57:36.845Z,13.55
2022-08-26T09:00:16.838Z,15.88
2022-08-26T09:02:52.775Z,12.00
2022-08-26T09:05:31.803Z,9.77
2022-08-26T09:08:21.604Z,11.40
2022-08-26T09:10:54.558Z,9.48
2022-08-26T09:13:25.267Z,14.65
2022-08-26T09:15:56.396Z,13.77
2022-08-26T09:18:25.888Z,18.25
2022-08-26T09:21:03.207Z,15.18
2022-08-26T09:23:36.529Z,15.50
2022-08-26T09:26:25.964Z,15.82
2022-08-26T09:29:01.064Z,15.85
2022-08-26T09:31:31.589Z,13.48
2022-08-26T09:34:26.058Z,11.85
2022-08-26T09:36:55.524Z,13.93
2022-08-26T09:39:28.066Z,8.70
2022-08-26T09:42:03.976Z,8.40
2022-08-26T09:44:32.005Z,8.63
2022-08-26T09:47:02.837Z,23.15
2022-08-26T09:49:39.875Z,21.08
2022-08-26T09:52:14.154Z,16.30
2022-08-26T09:54:42.526Z,12.45
2022-08-26T09:57:27.541Z,9.73
2022-08-26T09:59:56.156Z,9.20
2022-08-26T10:02:36.812Z,13.55
2022-08-26T10:05:09.252Z,15.45
2022-08-26T10:07:56.745Z,16.60
2022-08-26T10:10:40.672Z,11.02
2022-08-26T10:13:22.120Z,14.90
2022-08-26T10:16:10.807Z,9.70
2022-08-26T10:18:43.538Z,15.13
2022-08-26T10:21:12.968Z,14.97
2022-08-26T10:23:49.662Z,10.82
2022-08-26T10:26:30.605Z,10.85
2022-08-26T10:29:03.529Z,11.90
2022-08-26T10:31:54.658Z,11.15
2022-08-26T10:34:25.907Z,10.02
2022-08-26T10:37:13.788Z,11.13
2022-08-26T10:39:57.360Z,11.05
2022-08-26T10:42:35.424Z,13.55
2022-08-26T10:45:14.882Z,15.30
2022-08-26T10:47:46.067Z,9.55
2022-08-26T10:50:13.056Z,18.00
2022-08-26T10:53:10.740Z,12.88
2022-08-26T10:55:57.458Z,20.85
2022-08-26T10:58:36.228Z,13.07
2022-08-26T11:01:33.030Z,11.70
2022-08-26T11:04:27.519Z,14.60
2022-08-26T11:07:28.309Z,11.57
2022-08-26T11:09:55.895Z,8.82
2022-08-26T11:12:34.873Z,17.25
2022-08-26T11:15:07.048Z,11.98
2022-08-26T11:17:44.707Z,10.77
2022-08-26T11:20:37.149Z,13.85
2022-08-26T11:23:26.640Z,9.68
2022-08-26T11:25:59.773Z,13.45
2022-08-26T11:28:33.264Z,10.85
2022-08-26T11:31:04.584Z,13.65
2022-08-26T11:33:48.739Z,9.77
2022-08-26T11:36:47.672Z,7.97
2022-08-26T11:39:24.147Z,6.65
2022-08-26T11:42:00.040Z,8.25
2022-08-26T11:44:41.799Z,11.18
2022-08-26T11:47:24.990Z,11.88
2022-08-26T11:50:35.014Z,10.23
2022-08-26T11:53:06.412Z,8.65
2022-08-26T11:55:41.780Z,11.70
2022-08-26T11:58:12.760Z,10.20
2022-08-26T12:00:57.981Z,9.82
2022-08-26T12:03:47.698Z,10.43
2022-08-26T12:06:22.865Z,6.25
2022-08-26T12:08:50.580Z,11.63
2022-08-26T12:11:37.304Z,6.50
2022-08-26T12:14:07.738Z,10.65
2022-08-26T12:16:40.155Z,6.78
2022-08-26T12:19:22.156Z,9.57
2022-08-26T12:22:02.397Z,14.63
2022-08-26T12:24:29.685Z,9.65
2022-08-26T12:27:21.566Z,6.45
2022-08-26T12:30:24.128Z,7.70
2022-08-26T12:33:19.347Z,9.60
2022-08-26T12:35:52.870Z,8.70
2022-08-26T12:38:26.678Z,8.03
2022-08-26T12:40:53.765Z,4.65
2022-08-26T12:43:41.516Z,9.93
2022-08-26T12:46:16.472Z,8.40
2022-08-26T12:48:47.484Z,6.97
2022-08-26T12:51:27.092Z,9.10
2022-08-26T12:53:54.712Z,7.90
2022-08-26T12:56:42.057Z,5.50
2022-08-26T12:59:18.112Z,6.80
2022-08-26T13:01:46.736Z,7.00
2022-08-26T13:04:43.070Z,8.05
2022-08-26T13:07:36.538Z,6.18
2022-08-26T13:10:03.538Z,6.50
2022-08-26T13:12:37.008Z,8.80
2022-08-26T13:15:05.231Z,10.10
2022-08-26T13:17:32.283Z,6.03
2022-08-26T13:20:03.816Z,7.18
2022-08-26T13:22:31.193Z,5.20
2022-08-26T13:24:57.946Z,8.77
2022-08-26T13:27:26.415Z,8.38
2022-08-26T13:29:54.689Z,7.38
2022-08-26T13:32:22.571Z,10.43
2022-08-26T13:34:56.171Z,6.97
2022-08-26T13:37:29.311Z,7.15
2022-08-26T13:40:01.871Z,14.52
2022-08-26T13:42:29.318Z,10.45
2022-08-26T13:44:58.014Z,8.43
2022-08-26T13:47:25.884Z,8.65
2022-08-26T13:49:54.697Z,9.82
2022-08-26T13:52:30.265Z,11.57
2022-08-26T13:55:00.518Z,6.78
2022-08-26T13:57:31.056Z,7.25
2022-08-26T13:59:59.315Z,10.07
2022-08-26T14:02:27.449Z,8.40
2022-08-26T14:04:55.304Z,9.18
2022-08-26T14:07:24.415Z,8.82
2022-08-26T14:09:53.398Z,7.40
2022-08-26T14:12:20.176Z,9.30
2022-08-26T14:14:47.348Z,9.23
2022-08-26T14:17:19.143Z,9.45
2022-08-26T14:19:48.138Z,11.63
2022-08-26T14:22:17.778Z,8.32
2022-08-26T14:24:44.946Z,11.88
2022-08-26T14:27:12.941Z,9.00
2022-08-26T14:29:40.657Z,8.30
2022-08-26T14:32:24.983Z,10.55
2022-08-26T14:34:52.074Z,11.07
2022-08-26T14:37:19.099Z,7.00
2022-08-26T14:39:46.293Z,10.02
2022-08-26T14:42:17.996Z,9.80
2022-08-26T14:44:48.799Z,8.35
2022-08-26T14:47:15.488Z,8.75
2022-08-26T14:49:42.300Z,8.10
2022-08-26T14:52:11.192Z,9.77
2022-08-26T14:54:38.107Z,8.10
2022-08-26T14:57:07.856Z,6.57
2022-08-26T14:59:38.412Z,8.15
2022-08-26T15:02:10.379Z,9.20
2022-08-26T15:04:43.213Z,7.45
2022-08-26T15:07:12.760Z,8.57
2022-08-26T15:09:40.017Z,10.68
2022-08-26T15:12:06.887Z,8.68
2022-08-26T15:14:33.619Z,5.43
2022-08-26T15:17:00.745Z,8.38
2022-08-26T15:19:28.117Z,7.60
2022-08-26T15:21:55.263Z,7.03
2022-08-26T15:24:26.220Z,7.28
2022-08-26T15:26:53.157Z,8.02
2022-08-26T15:29:23.984Z,7.05
2022-08-26T15:31:50.742Z,5.85
2022-08-26T15:34:17.906Z,7.20
2022-08-26T15:36:46.438Z,6.07
2022-08-26T15:39:14.552Z,5.63
2022-08-26T15:41:41.312Z,5.82
2022-08-26T15:44:09.239Z,5.90
2022-08-26T15:46:39.143Z,6.55
2022-08-26T15:49:06.486Z,5.35
2022-08-26T15:51:45.103Z,8.70
2022-08-26T15:54:16.502Z,6.07
2022-08-26T15:56:43.760Z,8.25
2022-08-26T15:59:11.435Z,6.22
2022-08-26T16:01:38.863Z,7.93
2022-08-26T16:04:05.859Z,8.35
2022-08-26T16:06:38.056Z,6.53
2022-08-26T16:09:06.306Z,10.88
2022-08-26T16:11:34.185Z,10.10
2022-08-26T16:14:00.921Z,8.88
2022-08-26T16:16:27.674Z,7.50
2022-08-26T16:18:54.980Z,8.27
2022-08-26T16:21:25.546Z,11.20
2022-08-26T16:23:55.422Z,11.88
2022-08-26T16:26:25.955Z,9.95
2022-08-26T16:28:55.595Z,8.55
2022-08-26T16:31:22.595Z,11.55
2022-08-26T16:33:49.615Z,10.52
2022-08-26T16:36:21.017Z,14.32
2022-08-26T16:38:56.275Z,12.20
2022-08-26T16:41:24.679Z,10.90
2022-08-26T16:43:51.888Z,15.25
2022-08-26T16:46:19.077Z,14.27
2022-08-26T16:48:45.881Z,15.73
2022-08-26T16:51:16.102Z,15.40
2022-08-26T16:53:43.995Z,13.05
2022-08-26T16:56:22.103Z,14.98
2022-08-26T16:58:49.402Z,20.05
2022-08-26T17:01:17.817Z,14.18
2022-08-26T17:03:44.635Z,19.95
2022-08-26T17:06:11.917Z,13.38
2022-08-26T17:08:39.757Z,17.27
2022-08-26T17:11:09.663Z,11.00
2022-08-26T17:13:37.970Z,17.92
2022-08-26T17:16:07.403Z,15.30
2022-08-26T17:18:34.982Z,17.15
2022-08-26T17:21:04.404Z,12.10
2022-08-26T17:23:31.194Z,16.83
2022-08-26T17:25:57.944Z,11.27
2022-08-26T17:28:24.770Z,12.05
2022-08-26T17:30:51.674Z,14.18
2022-08-26T17:33:21.946Z,15.63
2022-08-26T17:35:51.681Z,15.77
2022-08-26T17:38:18.805Z,14.05
2022-08-26T17:40:45.513Z,14.18
2022-08-26T17:43:14.750Z,22.90
2022-08-26T17:45:41.495Z,13.43
2022-08-26T17:48:08.613Z,19.55
2022-08-26T17:50:35.606Z,11.45
2022-08-26T17:53:03.494Z,19.00
2022-08-26T17:55:30.418Z,15.00
2022-08-26T17:57:57.092Z,15.63
2022-08-26T18:00:26.581Z,19.08
2022-08-26T18:02:55.001Z,17.80
2022-08-26T18:05:22.302Z,11.18
2022-08-26T18:07:49.403Z,17.58
2022-08-26T18:10:18.665Z,17.52
2022-08-26T18:12:46.465Z,14.30
2022-08-26T18:15:14.924Z,16.10
2022-08-26T18:17:44.507Z,16.75
2022-08-26T18:20:15.831Z,13.85
2022-08-26T18:22:43.146Z,19.58
2022-08-26T18:25:13.635Z,20.30
2022-08-26T18:27:40.750Z,16.92
2022-08-26T18:30:16.468Z,21.08
2022-08-26T18:32:44.324Z,23.98
2022-08-26T18:35:11.967Z,17.73
2022-08-26T18:37:39.094Z,16.95
2022-08-26T18:40:08.152Z,18.17
2022-08-26T18:42:35.016Z,21.23
2022-08-26T18:45:01.943Z,15.02
2022-08-26T18:47:30.005Z,16.27
2022-08-26T18:49:56.670Z,20.85
2022-08-26T18:52:23.609Z,21.60
2022-08-26T18:54:50.936Z,17.08
2022-08-26T18:57:17.753Z,19.10
2022-08-26T18:59:44.437Z,19.30
2022-08-26T19:02:11.402Z,19.02
2022-08-26T19:04:38.509Z,16.20
2022-08-26T19:07:06.042Z,14.18
2022-08-26T19:09:40.057Z,15.65
2022-08-26T19:12:08.600Z,14.88
2022-08-26T19:14:36.142Z,13.88
2022-08-26T19:17:03.033Z,21.13
2022-08-26T19:19:30.223Z,19.08
2022-08-26T19:21:57.122Z,14.82
2022-08-26T19:24:25.977Z,15.20
2022-08-26T19:26:58.101Z,14.98
2022-08-26T19:29:29.764Z,17.45
2022-08-26T19:31:56.629Z,17.80
2022-08-26T19:34:24.088Z,12.02
2022-08-26T19:36:57.677Z,15.55
2022-08-26T19:41:53.941Z,13.85
2022-08-26T19:44:41.695Z,15.90
2022-08-26T19:47:13.341Z,19.00
2022-08-26T19:49:40.105Z,14.80
2022-08-26T19:52:10.973Z,18.17
2022-08-26T19:54:38.554Z,17.65
2022-08-26T19:57:06.093Z,17.10
2022-08-26T19:59:36.227Z,16.42
2022-08-26T20:02:08.506Z,21.20
2022-08-26T20:04:38.087Z,18.15
2022-08-26T20:07:08.627Z,14.10
2022-08-26T20:09:36.079Z,18.05
2022-08-26T20:12:05.078Z,18.33
2022-08-26T20:14:35.491Z,21.85
2022-08-26T20:17:03.898Z,15.25
2022-08-26T20:19:49.145Z,14.88
2022-08-26T20:22:16.642Z,16.08
2022-08-26T20:24:45.328Z,20.50
2022-08-26T20:27:12.272Z,20.77
2022-08-26T20:29:42.682Z,18.83
2022-08-26T20:32:12.108Z,19.88
2022-08-26T20:34:39.916Z,18.60
2022-08-26T20:37:08.315Z,23.52
2022-08-26T20:39:35.409Z,21.17
2022-08-26T20:42:06.954Z,17.67
2022-08-26T20:44:49.408Z,22.15
2022-08-26T20:47:24.339Z,18.40
2022-08-26T20:49:52.329Z,19.92
2022-08-26T20:52:19.710Z,20.65
2022-08-26T20:54:46.427Z,19.80
2022-08-26T20:57:14.479Z,22.83
2022-08-26T20:59:41.169Z,19.35
2022-08-26T21:02:08.054Z,18.08
2022-08-26T21:04:34.918Z,19.17
2022-08-26T21:07:01.633Z,20.65
2022-08-26T21:09:28.784Z,20.02
2022-08-26T21:11:57.026Z,20.38
2022-08-26T21:14:26.143Z,18.15
2022-08-26T21:16:53.153Z,22.58
2022-08-26T21:19:20.189Z,24.77
2022-08-26T21:21:49.316Z,31.33
2022-08-26T21:24:16.624Z,34.35
2022-08-26T21:26:43.418Z,33.00
2022-08-26T21:29:10.181Z,28.10
2022-08-26T21:31:42.258Z,23.73
2022-08-26T21:34:11.816Z,24.65
2022-08-26T21:36:38.476Z,21.75
2022-08-26T21:39:11.505Z,16.38
2022-08-26T21:44:05.929Z,18.10
2022-08-26T21:46:34.388Z,17.23
2022-08-26T21:49:04.123Z,17.60
2022-08-26T21:51:33.834Z,21.30
2022-08-26T21:54:02.234Z,23.80
2022-08-26T21:56:31.490Z,28.55
2022-08-26T21:58:59.239Z,25.83
2022-08-26T22:01:29.401Z,27.92
2022-08-26T22:03:56.143Z,24.85
2022-08-26T22:06:26.665Z,28.02
2022-08-26T22:08:54.413Z,24.42
2022-08-26T22:11:21.366Z,25.50
2022-08-26T22:13:49.050Z,26.02
2022-08-26T22:16:16.613Z,22.98
2022-08-26T22:18:45.767Z,23.42
2022-08-26T22:21:21.451Z,18.65
2022-08-26T22:23:48.298Z,21.75
2022-08-26T22:26:20.633Z,20.20
2022-08-26T22:28:58.826Z,19.85
2022-08-26T22:31:37.072Z,23.70
2022-08-26T22:34:10.831Z,21.13
2022-08-26T22:36:43.560Z,25.73
2022-08-26T22:39:11.863Z,24.70
2022-08-26T22:41:38.578Z,25.67
2022-08-26T22:44:05.442Z,27.38
2022-08-26T22:46:34.743Z,25.10
2022-08-26T22:49:01.606Z,25.23
2022-08-26T22:51:31.757Z,24.70
2022-08-26T22:53:58.731Z,25.15
2022-08-26T22:56:25.422Z,27.38
2022-08-26T22:58:54.571Z,24.40
2022-08-26T23:01:21.637Z,25.90
2022-08-26T23:03:50.974Z,27.80
2022-08-26T23:06:19.800Z,25.25
2022-08-26T23:08:53.695Z,27.45
2022-08-26T23:11:20.471Z,25.65
2022-08-26T23:13:47.152Z,25.30
2022-08-26T23:16:16.452Z,27.25
2022-08-26T23:18:43.252Z,21.83
2022-08-26T23:21:12.701Z,23.70
2022-08-26T23:23:39.440Z,25.15
2022-08-26T23:26:08.028Z,27.65
2022-08-26T23:28:36.436Z,20.10
2022-08-26T23:31:03.692Z,23.02
2022-08-26T23:33:51.697Z,23.45
2022-08-26T23:36:22.562Z,22.85
2022-08-26T23:38:53.081Z,26.45
2022-08-26T23:41:21.962Z,24.38
2022-08-26T23:43:54.124Z,20.33
2022-08-26T23:46:20.830Z,25.67
2022-08-26T23:48:50.043Z,23.52
2022-08-26T23:51:35.238Z,25.90
2022-08-26T23:54:01.986Z,25.85
2022-08-26T23:56:30.902Z,27.67
2022-08-26T23:58:57.567Z,24.88
